METAR Data
IDs: Format: Raw Decoded Include TAF

Data at: 1449 UTC 25 Jan 2020

METAR for:KOKV (Winchester Rgnl, VA, US)
Text:KOKV 251435Z AUTO 00000KT 10SM -DZ OVC007 05/04 A2986 RMK AO2
Temperature: 5.0°C ( 41°F)
Dewpoint: 4.0°C ( 39°F) [RH = 93%]
Pressure (altimeter):29.86 inches Hg (1011.3 mb)
Winds:calm
Visibility:10 or more sm (16+ km)
Ceiling:700 feet AGL
Clouds: overcast cloud deck at 700 feet AGL
Weather:-DZ (light drizzle)
QC Flag:automated observation with no human augmentation